AirNav   Everest Fuels
 
 1465 users online  

0WN0 Rucilla's Roost Airport
Sequim, Washington, USA

GOING TO SEQUIM?


FAA INFORMATION EFFECTIVE 08 OCTOBER 2020

Location

FAA Identifier: 0WN0
Lat/Long: 48-08-14.2600N 123-06-45.7900W
48-08.237667N 123-06.763167W
48.1372944,-123.1127194
(estimated)
Elevation: 15 ft. / 5 m (estimated)
From city: 4 miles N of SEQUIM, WA
Time zone: UTC -7 (UTC -8 during Standard Time)
Zip code: 98382

Airport Operations

Airport use: Private use. Permission required prior to landing
Activation date: 04/2006
Control tower: no
ARTCC: SEATTLE CENTER
FSS: SEATTLE FLIGHT SERVICE STATION
Attendance: UNATNDD
Wind indicator: yes
Segmented circle: no

Airport Communications

WX AWOS-3P at NOW (12 nm W): 118.325 (360-457-7529)
WX AWOS-3P at 0S9 (13 nm E): 119.025 (360-379-1199)
WX ASOS at CLM (16 nm W): 135.175 (360-457-1070)
WX AWOS-3 at OKH (19 nm E): 132.775 (360-675-8431)

Nearby radio navigation aids

VOR radial/distance  VOR name  Freq  Var
CVVr228/16.8PENN COVE VOR/DME117.2019E
PAEr271/36.0PAINE VOR/DME110.6020E
YYJr140/38.4VICTORIA VOR/DME113.7017E

 
NDB name  Hdg/Dist  Freq  Var  ID
EDIZ HOOK074/11.633817ENOW -. --- .--
FRIDAY HARBOR172/22.828417EFHR ..-. .... .-.
SKAGIT/BAY VIEW218/34.124016EBVS -... ...- ...

Airport Services

Runway Information

Runway 9/27

Dimensions: 1050 x 28 ft. / 320 x 9 m
Surface: turf
RUNWAY 9  RUNWAY 27
Traffic pattern: leftleft

Airport Ownership and Management from official FAA records

Ownership: Privately-owned
Owner: JOHN DOLAN
302 PRIMROSE LN.
SEQUIM, WA 98328
Phone 206-612-9906
Manager: JOHN DOLAN
302 PRIMROSE LN.
SEQUIM, WA 98382
Phone 206-612-9906

Additional Remarks

FOR CD CTC SEATTLE ARTCC AT 253-351-3694.

Instrument Procedures

There are no published instrument procedures at 0WN0.

Some nearby airports with instrument procedures:

KNOW - Port Angeles Coast Guard Air Station Airport (12 nm W)
0S9 - Jefferson County International Airport (13 nm E)
KCLM - William R Fairchild International Airport (16 nm W)
KOKH - AJ Eisenberg Airport (19 nm E)
KNUW - Whidbey Island Naval Air Station (Ault Field) (22 nm NE)
 
Loc | Ops | Rwys | IFR | FBO | Links
Com | Nav | Svcs | Stats | Notes
Area around 0WN0 (Rucilla's Roost Airport)
 
Road maps at: MapQuest Bing Google
 
Aerial photo
No photo
 
Sectional chart

 
Airport distance calculator
Flying to Rucilla's Roost Airport? Find the distance to fly.

From to 0WN0

Sunrise and sunset
Times for 21-Oct-2020
 Local
(UTC-7)
 Zulu
(UTC)
Morning civil twilight07:1214:12
Sunrise07:4414:44
Sunset18:1001:10
Evening civil twilight18:4201:42

Current date and time
Zulu (UTC)  21-Oct-2020 21:09:05
Local (UTC-7)  21-Oct-2020 14:09:05
 
METAR
K0S9 
13nm E 
212055Z AUTO VRB04KT 10SM SCT050 BKN065 11/04 A3016 RMK AO2
KCLM 
16nm W 
212053Z AUTO VRB05KT 10SM CLR 12/04 A3017 RMK AO2 SLP216 T01170044 53007
CWQK 
18nm NW 
212000Z AUTO 26008KT 10/ RMK AO1 SLP212 T0098 51011
CWLM 
19nm NW 
212000Z AUTO 12004KT 10/05 RMK AO1 SLP214 T01020046 52013
CYWH 
19nm NW 
212000Z 15004KT 120V240 15SM SCT040TCU BKN080 10/04 A3016 RMK TCU4AC2 SLP215
KNOW 
20nm W 
212055Z AUTO 01005KT 10SM SCT070 A3017 RMK AO2
CWYJ 
20nm N 
212000Z AUTO 09001KT 10/04 RMK AO1 SLP214 T00970039 51011
CWPF 
21nm NW 
212045Z AUTO 16005KT 10/05 RMK AO1 SLP212 T01010049 53008
KNUW 
22nm NE 
212056Z 35010KT 10SM FEW036 SCT060 SCT250 13/03 A3021 RMK AO2 SLP228 T01280033 53010 $
KFHR 
23nm N 
212053Z AUTO 36010G19KT 10SM FEW038 BKN047 11/03 A3018 RMK AO2 SLP219 T01110033 53012 TSNO
TAF
KCLM 
16nm W 
211737Z 2118/2218 28008KT P6SM VCSH BKN050 FM212100 29012KT P6SM SCT250 FM220400 24004KT P6SM SCT250
CYWH 
19nm NW 
211410Z 2114/2202 30005KT P6SM FEW040 FEW090 RMK NXT FCST BY 212100Z
NOTAMs
Click for the latest NOTAMs
NOTAMs are issued by the DoD/FAA and will open in a separate window not controlled by AirNav.

 

 
 

Would you like to see your business listed on this page?

 If your business provides an interesting product or service to pilots, flight crews, aircraft, or users of the Rucilla's Roost Airport, you should consider listing it here.  To start the listing process, click on the button below
 
Add a business
 

Other Pages about Rucilla's Roost Airport

Update a link
 
Copyright © AirNav, LLC. All rights reserved. Privacy Policy  Contact